Portada
METAR-TAF:

METAR-TAF

Aeroports :

Base aèria

Ismailiyah, Egipte

latitud: 30-35-54N, longitud: 032-14-13E, altitud: 13 m

Observació

L'informe es va fer fa 13 hores i 29 minuts, a les 16:00 UTC
Vent 13 kt del Nord/Nord-Est
Temperatura 32°C
Humitat 52%
Pressió 1012 hPa
Visibilitat 10 km o més
sense núvols per sota de 1500 mi sense presència de cumulonimbus.

METAR: HEIS 281600Z 03013KT CAVOK 32/21 Q1012

Hora: 07:29 (05:29 UTC)


TAF: manca

Observacions i pronòstics meteorològics de més de 4000 aeroports (METAR i TAF).

Les estacions disponibles són els punts grocs i vermells al mapa.

Posi el ratolí al punt desitjat per veure el nom de l'estació.

Feu clic per veure les observacions i els pronòstics meteorològics.

Per canviar el mapa: feu clic els botons verds amb una creu de color negre per apropar; al botó verd amb un guió per allunyar la imatge; o en les fletxes verdes per a mapes adjacents.


METAR-TAF: